Time;durP1;ratioP1;P1;durP2;ratioP2;P2;SDS_P1;SDS_P2;PMS_P1;PMS_P2;Temp;Humidity;BMP_temperature;BMP_pressure;BME280_temperature;BME280_humidity;BME280_pressure;Samples;Min_cycle;Max_cycle;Signal;HPM_P1;HPM_P2
2021/12/08 00:00:17;;;;;;;3.35;2.95;;;;;;;-2.20;100.00;93908.50;5075289;28;20731;-68
2021/12/08 00:02:44;;;;;;;3.10;2.47;;;;;;;-2.12;100.00;93931.41;5076762;28;20040;-68
2021/12/08 00:05:14;;;;;;;4.88;2.88;;;;;;;-2.17;100.00;93918.38;5074575;28;20117;-68
2021/12/08 00:07:41;;;;;;;6.10;3.25;;;;;;;-2.17;100.00;93949.00;5074570;28;20402;-69
2021/12/08 00:10:18;;;;;;;3.97;3.33;;;;;;;-2.35;100.00;93905.16;5077305;28;20039;-68
2021/12/08 00:13:02;;;;;;;5.43;3.08;;;;;;;-2.16;100.00;93937.84;5080207;28;20056;-68
2021/12/08 00:15:35;;;;;;;3.95;2.75;;;;;;;-2.13;100.00;93940.00;5079210;28;20503;-67
2021/12/08 00:18:05;;;;;;;7.15;3.97;;;;;;;-2.20;100.00;93923.03;5076624;28;20048;-68
2021/12/08 00:20:33;;;;;;;4.70;3.97;;;;;;;-2.18;100.00;93942.31;5081563;28;20037;-68
2021/12/08 00:23:02;;;;;;;6.10;3.38;;;;;;;-2.19;100.00;93945.81;5075015;28;20068;-68
2021/12/08 00:25:30;;;;;;;7.75;4.00;;;;;;;-2.26;100.00;93937.28;5080401;28;20044;-68
2021/12/08 00:27:58;;;;;;;7.97;3.75;;;;;;;-2.17;100.00;93953.31;5070625;28;20041;-68
2021/12/08 00:30:27;;;;;;;5.53;3.75;;;;;;;-2.10;100.00;93945.75;5075204;28;20040;-68
2021/12/08 00:32:55;;;;;;;6.20;3.58;;;;;;;-2.17;100.00;93954.09;5071984;28;20048;-68
2021/12/08 00:35:23;;;;;;;4.40;3.10;;;;;;;-2.19;100.00;93960.34;5075500;28;20048;-68
2021/12/08 00:37:50;;;;;;;3.80;2.88;;;;;;;-2.14;100.00;93958.06;5077549;28;20044;-67
2021/12/08 00:40:18;;;;;;;3.95;2.67;;;;;;;-2.13;100.00;93952.78;5074311;28;20508;-68
2021/12/08 00:42:46;;;;;;;8.75;3.80;;;;;;;-2.08;100.00;93967.56;5077543;28;20083;-68
2021/12/08 00:45:17;;;;;;;6.38;3.83;;;;;;;-2.07;100.00;93965.81;5077452;28;20052;-68
2021/12/08 00:47:48;;;;;;;6.90;4.25;;;;;;;-2.21;100.00;93950.31;5081697;28;20048;-68
2021/12/08 00:50:18;;;;;;;7.47;4.15;;;;;;;-2.14;100.00;93963.97;5076917;28;20524;-68
2021/12/08 00:52:54;;;;;;;6.57;3.78;;;;;;;-2.12;100.00;93962.03;5076856;28;20580;-67
2021/12/08 00:55:21;;;;;;;6.95;4.68;;;;;;;-2.26;100.00;93939.84;5074318;28;20050;-67
2021/12/08 00:57:48;;;;;;;5.40;3.67;;;;;;;-2.10;100.00;93978.94;5079549;28;20055;-68
2021/12/08 01:00:21;;;;;;;8.43;4.65;;;;;;;-2.14;100.00;93971.63;5076731;28;20036;-68
2021/12/08 01:02:48;;;;;;;6.03;3.72;;;;;;;-2.14;100.00;93968.28;5075891;28;20043;-68
2021/12/08 01:05:18;;;;;;;5.40;3.53;;;;;;;-2.13;100.00;93967.28;5076572;28;20048;-68
2021/12/08 01:07:45;;;;;;;7.18;4.10;;;;;;;-2.05;100.00;93971.53;5070488;28;20576;-68
2021/12/08 01:10:18;;;;;;;8.23;3.70;;;;;;;-2.18;100.00;93962.72;5074750;28;20043;-68
2021/12/08 01:12:52;;;;;;;4.75;3.80;;;;;;;-2.13;100.00;93959.63;5077651;28;20115;-68
2021/12/08 01:15:21;;;;;;;7.35;4.00;;;;;;;-2.03;100.00;93969.63;5079213;28;20494;-68
2021/12/08 01:17:48;;;;;;;8.15;4.35;;;;;;;-2.10;100.00;93968.72;5075888;28;20427;-68
2021/12/08 01:20:16;;;;;;;7.43;3.88;;;;;;;-2.13;100.00;93970.63;5080011;28;20051;-68
2021/12/08 01:22:45;;;;;;;3.28;2.50;;;;;;;-2.06;100.00;93975.84;5083173;28;20048;-68
2021/12/08 01:25:12;;;;;;;6.65;4.47;;;;;;;-2.08;100.00;93982.88;5076465;28;20582;-68
2021/12/08 01:27:39;;;;;;;7.22;4.30;;;;;;;-2.05;100.00;93981.72;5078667;28;20780;-68
2021/12/08 01:30:08;;;;;;;6.13;4.10;;;;;;;-2.05;100.00;93976.63;5070376;28;20040;-68
2021/12/08 01:32:35;;;;;;;8.82;4.70;;;;;;;-2.15;100.00;93959.81;5075315;28;20047;-68
2021/12/08 01:35:04;;;;;;;10.43;5.35;;;;;;;-2.01;100.00;93983.78;5077089;28;20051;-68
2021/12/08 01:37:32;;;;;;;10.82;4.85;;;;;;;-2.01;100.00;93981.22;5079185;28;20052;-68
2021/12/08 01:40:00;;;;;;;8.00;4.28;;;;;;;-1.99;100.00;93981.06;5079391;28;20043;-68
2021/12/08 01:42:33;;;;;;;9.73;5.85;;;;;;;-1.98;100.00;93982.63;5070859;28;20090;-68
2021/12/08 01:47:45;;;;;;;9.52;4.55;;;;;;;-1.88;100.00;93978.06;5082045;28;20055;-67
2021/12/08 01:50:12;;;;;;;8.40;4.55;;;;;;;-1.92;100.00;93987.03;5077862;28;20537;-68
2021/12/08 01:52:39;;;;;;;6.78;4.22;;;;;;;-2.06;100.00;93977.59;5074924;28;20040;-68
2021/12/08 01:55:10;;;;;;;7.57;4.93;;;;;;;-1.94;100.00;93983.88;5077467;28;20042;-68
2021/12/08 01:57:42;;;;;;;5.60;4.13;;;;;;;-1.93;100.00;93995.66;5076549;28;20042;-69
2021/12/08 02:00:17;;;;;;;7.70;4.03;;;;;;;-1.92;100.00;94002.34;5074852;28;20573;-68
2021/12/08 02:02:56;;;;;;;9.38;4.30;;;;;;;-1.91;100.00;94003.94;5073930;28;20057;-68
2021/12/08 02:05:23;;;;;;;11.52;5.60;;;;;;;-1.93;100.00;94003.31;5080020;28;20143;-68
2021/12/08 02:07:51;;;;;;;9.23;5.60;;;;;;;-1.89;100.00;94004.56;5076850;28;20040;-68
2021/12/08 02:10:18;;;;;;;8.95;5.15;;;;;;;-1.93;100.00;94000.75;5076625;28;20475;-68
2021/12/08 02:12:46;;;;;;;9.30;5.82;;;;;;;-1.96;100.00;94001.13;5073475;28;20129;-68
2021/12/08 02:15:16;;;;;;;12.85;5.57;;;;;;;-1.90;100.00;94010.63;5076106;28;20044;-67
2021/12/08 02:17:46;;;;;;;11.30;6.85;;;;;;;-1.91;100.00;93998.81;5072881;28;20058;-68
2021/12/08 02:20:14;;;;;;;14.98;6.68;;;;;;;-1.99;100.00;94009.91;5073980;28;20040;-68
2021/12/08 02:22:42;;;;;;;10.85;6.55;;;;;;;-1.87;100.00;94015.41;5074623;28;20040;-68
2021/12/08 02:25:15;;;;;;;8.18;4.72;;;;;;;-1.90;100.00;94018.28;5076069;28;20544;-68
2021/12/08 02:27:42;;;;;;;10.05;6.07;;;;;;;-1.90;100.00;94015.72;5069982;28;20040;-68
2021/12/08 02:30:36;;;;;;;8.88;5.50;;;;;;;-1.87;100.00;94015.41;5069654;28;20037;-68
2021/12/08 02:47:11;;;;;;;18.77;6.35;;;;;;;-1.88;100.00;94039.31;5068592;28;20047;-68
2021/12/08 02:49:39;;;;;;;11.02;6.78;;;;;;;-1.81;100.00;94042.75;5072837;28;20120;-68
2021/12/08 02:52:08;;;;;;;13.32;6.28;;;;;;;-1.80;100.00;94041.81;5072160;28;20060;-68
2021/12/08 02:54:39;;;;;;;16.02;6.78;;;;;;;-1.80;100.00;94041.00;5078431;28;20048;-68
2021/12/08 02:57:07;;;;;;;14.65;8.13;;;;;;;-1.84;100.00;94050.75;5078204;28;20128;-67
2021/12/08 02:59:35;;;;;;;12.82;5.50;;;;;;;-1.90;100.00;94040.47;5076824;28;20048;-69
2021/12/08 03:02:02;;;;;;;18.33;7.88;;;;;;;-1.85;100.00;94046.63;5079894;28;20058;-68
2021/12/08 03:04:30;;;;;;;21.80;6.57;;;;;;;-1.81;100.00;94052.97;5079466;28;20425;-67
2021/12/08 03:06:57;;;;;;;19.30;7.97;;;;;;;-1.92;100.00;94043.19;5079119;28;20483;-68
2021/12/08 03:09:25;;;;;;;12.48;7.40;;;;;;;-1.85;100.00;94049.19;5082176;28;20040;-68
2021/12/08 03:11:55;;;;;;;19.83;8.45;;;;;;;-1.80;100.00;94051.22;5074733;28;20032;-68
2021/12/08 03:14:22;;;;;;;19.20;9.18;;;;;;;-1.85;100.00;94036.44;5072867;28;20032;-68
2021/12/08 03:16:54;;;;;;;17.27;9.32;;;;;;;-1.75;100.00;94054.84;5073910;28;20175;-68
2021/12/08 03:19:24;;;;;;;13.38;7.00;;;;;;;-1.69;100.00;94068.69;5069437;28;20044;-68
2021/12/08 03:21:54;;;;;;;14.05;7.95;;;;;;;-1.81;100.00;94050.44;5074324;28;20064;-68
2021/12/08 03:27:07;;;;;;;17.73;9.15;;;;;;;-1.75;100.00;94062.50;5070549;28;20062;-68
2021/12/08 03:29:52;;;;;;;10.13;6.55;;;;;;;-1.76;100.00;94063.47;5071540;28;20498;-67
2021/12/08 03:32:27;;;;;;;18.02;8.10;;;;;;;-1.73;100.00;94065.69;5077464;28;20048;-67
2021/12/08 03:34:54;;;;;;;19.77;9.00;;;;;;;-1.66;100.00;94072.63;5079468;28;20540;-68
2021/12/08 03:37:31;;;;;;;19.95;9.45;;;;;;;-1.72;100.00;94079.22;5072748;28;20040;-68
2021/12/08 03:40:00;;;;;;;17.88;8.48;;;;;;;-1.73;100.00;94078.44;5077554;28;20049;-69
2021/12/08 03:42:29;;;;;;;13.93;8.05;;;;;;;-1.70;100.00;94076.50;5070530;28;20127;-68
2021/12/08 03:45:00;;;;;;;17.23;9.52;;;;;;;-1.76;100.00;94083.88;5076709;28;20055;-67
2021/12/08 03:47:29;;;;;;;22.65;9.60;;;;;;;-1.70;100.00;94081.63;5071816;28;20045;-68
2021/12/08 03:50:00;;;;;;;16.48;8.65;;;;;;;-1.73;100.00;94088.66;5073009;28;20566;-67
2021/12/08 03:52:27;;;;;;;15.95;9.05;;;;;;;-1.71;100.00;94091.03;5073276;28;20614;-68
2021/12/08 03:54:54;;;;;;;15.32;7.50;;;;;;;-1.72;100.00;94104.75;5076751;28;20051;-68
2021/12/08 03:57:21;;;;;;;20.85;9.68;;;;;;;-1.79;100.00;94098.75;5073256;28;20817;-68
2021/12/08 03:59:48;;;;;;;19.00;10.25;;;;;;;-1.75;100.00;94098.25;5072264;28;20050;-68
2021/12/08 04:02:15;;;;;;;19.52;8.80;;;;;;;-1.75;100.00;94111.03;5075381;28;20048;-68
2021/12/08 04:04:46;;;;;;;19.13;9.98;;;;;;;-1.86;100.00;94091.00;5068950;28;20047;-67
2021/12/08 04:07:15;;;;;;;16.67;9.23;;;;;;;-1.90;100.00;94092.31;5072069;28;20583;-68
2021/12/08 04:09:45;;;;;;;17.85;10.13;;;;;;;-1.68;100.00;94110.31;5080735;28;20032;-68
2021/12/08 04:12:16;;;;;;;19.25;9.75;;;;;;;-1.81;100.00;94101.47;5069951;28;20036;-67
2021/12/08 04:14:52;;;;;;;22.50;10.82;;;;;;;-1.72;100.00;94122.63;5073760;28;20043;-68
2021/12/08 04:17:33;;;;;;;23.45;9.98;;;;;;;-1.77;100.00;94107.03;5073429;28;20520;-68
2021/12/08 04:20:05;;;;;;;20.63;10.40;;;;;;;-1.74;100.00;94110.03;5076571;28;20047;-67
2021/12/08 04:22:37;;;;;;;17.65;8.90;;;;;;;-1.82;100.00;94104.19;5079433;28;20421;-68
2021/12/08 04:25:12;;;;;;;17.50;10.10;;;;;;;-1.68;100.00;94112.88;5074025;28;20468;-67
2021/12/08 04:27:41;;;;;;;19.70;11.70;;;;;;;-1.69;100.00;94129.97;5067553;28;20047;-67
2021/12/08 04:30:18;;;;;;;22.40;11.48;;;;;;;-1.81;100.00;94124.44;5075157;28;20627;-67
2021/12/08 04:32:45;;;;;;;19.33;10.00;;;;;;;-1.80;100.00;94127.78;5074506;28;20048;-68
2021/12/08 04:35:15;;;;;;;24.00;12.23;;;;;;;-1.71;100.00;94123.41;5072673;28;20036;-68
2021/12/08 04:37:46;;;;;;;25.80;10.02;;;;;;;-1.75;100.00;94123.78;5076144;28;20050;-68
2021/12/08 04:40:52;;;;;;;18.58;10.32;;;;;;;-1.63;100.00;94143.78;5074460;28;20043;-68
2021/12/08 04:43:37;;;;;;;17.80;10.65;;;;;;;-1.68;100.00;94140.97;5068262;28;20047;-68
2021/12/08 05:03:21;;;;;;;20.65;11.32;;;;;;;-1.74;100.00;94163.66;5074145;28;20048;-68
2021/12/08 05:08:18;;;;;;;20.55;11.45;;;;;;;-1.65;100.00;94171.25;5073225;28;20072;-67
2021/12/08 05:10:47;;;;;;;20.80;11.40;;;;;;;-1.68;100.00;94166.50;5078076;28;20414;-68
2021/12/08 05:13:16;;;;;;;21.60;10.38;;;;;;;-1.69;100.00;94164.88;5075486;28;20643;-68
2021/12/08 05:15:56;;;;;;;18.80;8.13;;;;;;;-1.66;100.00;94174.75;5076598;28;20124;-67
2021/12/08 05:18:30;;;;;;;23.58;11.15;;;;;;;-1.73;100.00;94161.88;5080415;28;20130;-68
2021/12/08 05:21:04;;;;;;;;;;;;;;;-1.68;100.00;94176.69;5077187;28;20044;-68
2021/12/08 05:23:35;;;;;;;13.02;8.18;;;;;;;-1.66;100.00;94174.75;5075946;28;20321;-68
2021/12/08 05:26:09;;;;;;;19.15;10.35;;;;;;;-1.72;100.00;94186.47;5078415;28;20043;-68
2021/12/08 05:28:39;;;;;;;17.20;8.30;;;;;;;-1.67;100.00;94189.31;5069680;28;20055;-68
2021/12/08 05:31:10;;;;;;;29.33;13.70;;;;;;;-1.63;100.00;94184.66;5071314;28;20476;-68
2021/12/08 05:33:40;;;;;;;26.38;12.88;;;;;;;-1.65;100.00;94192.47;5080075;28;20433;-68
2021/12/08 05:36:08;;;;;;;28.23;12.93;;;;;;;-1.67;100.00;94185.97;5078475;28;20048;-68
2021/12/08 05:38:37;;;;;;;28.05;12.75;;;;;;;-1.77;100.00;94184.41;5077338;28;20101;-68
2021/12/08 05:41:21;;;;;;;27.15;13.43;;;;;;;-1.71;100.00;94192.34;5077797;28;20040;-68
2021/12/08 05:43:49;;;;;;;21.30;9.68;;;;;;;-1.76;100.00;94190.31;5080441;28;20048;-68
2021/12/08 05:46:18;;;;;;;25.48;11.80;;;;;;;-1.75;100.00;94197.81;5077694;28;20052;-69
2021/12/08 05:48:48;;;;;;;19.35;11.10;;;;;;;-1.74;100.00;94207.06;5075392;28;20144;-68
2021/12/08 05:51:28;;;;;;;21.08;8.68;;;;;;;-1.76;100.00;94206.44;5076880;28;20041;-68
2021/12/08 05:54:00;;;;;;;25.42;13.77;;;;;;;-1.73;100.00;94211.22;5076884;28;20063;-67
2021/12/08 05:56:28;;;;;;;26.65;12.63;;;;;;;-1.72;100.00;94224.75;5077960;28;20043;-68
2021/12/08 05:58:58;;;;;;;19.98;9.32;;;;;;;-1.71;100.00;94228.09;5073604;28;20050;-68
2021/12/08 06:01:39;;;;;;;25.73;14.38;;;;;;;-1.74;100.00;94224.94;5076166;28;20501;-68
2021/12/08 06:04:09;;;;;;;33.90;14.75;;;;;;;-1.86;100.00;94210.97;5071635;28;20054;-68
2021/12/08 06:06:36;;;;;;;26.08;12.88;;;;;;;-1.71;100.00;94243.41;5069915;28;20040;-68
2021/12/08 06:09:06;;;;;;;38.00;12.43;;;;;;;-1.74;100.00;94230.03;5074965;28;20055;-69
2021/12/08 06:11:34;;;;;;;20.58;11.00;;;;;;;-1.65;100.00;94245.31;5076609;28;20037;-69
2021/12/08 06:14:02;;;;;;;24.48;11.20;;;;;;;-1.58;100.00;94259.78;5072938;28;20123;-68
2021/12/08 06:16:31;;;;;;;25.15;12.27;;;;;;;-1.63;100.00;94253.59;5077410;28;20036;-68
2021/12/08 06:18:59;;;;;;;24.85;9.77;;;;;;;-1.64;100.00;94262.22;5072980;28;20051;-68
2021/12/08 06:21:29;;;;;;;19.88;10.68;;;;;;;-1.63;100.00;94261.25;5074482;28;20054;-68
2021/12/08 06:23:58;;;;;;;30.60;14.95;;;;;;;-1.63;100.00;94276.56;5074439;28;20051;-68
2021/12/08 06:26:27;;;;;;;22.60;11.55;;;;;;;-1.65;100.00;94263.97;5074953;28;20040;-67
2021/12/08 06:28:55;;;;;;;20.73;11.40;;;;;;;-1.59;100.00;94272.72;5070168;28;20055;-68
2021/12/08 06:31:25;;;;;;;26.42;10.32;;;;;;;-1.63;100.00;94276.56;5073851;28;20036;-68
2021/12/08 06:33:54;;;;;;;19.58;9.80;;;;;;;-1.62;100.00;94267.94;5072837;28;20143;-68
2021/12/08 06:36:52;;;;;;;13.48;7.15;;;;;;;-1.65;100.00;94258.09;5071072;28;20059;-68
2021/12/08 06:39:28;;;;;;;18.83;8.60;;;;;;;-1.65;100.00;94268.28;5069305;28;20044;-68
2021/12/08 06:41:59;;;;;;;16.42;8.57;;;;;;;-1.63;100.00;94262.03;5070742;28;20824;-68
2021/12/08 06:44:31;;;;;;;16.77;8.93;;;;;;;-1.71;100.00;94279.16;5077221;28;20048;-68
2021/12/08 06:47:00;;;;;;;23.55;10.60;;;;;;;-1.65;100.00;94270.84;5074973;28;20055;-68
2021/12/08 06:49:28;;;;;;;22.70;8.38;;;;;;;-1.66;100.00;94271.78;5071515;28;20044;-68
2021/12/08 06:52:00;;;;;;;14.60;7.47;;;;;;;-1.79;100.00;94247.63;5076099;28;20036;-68
2021/12/08 06:54:35;;;;;;;15.70;9.63;;;;;;;-1.60;100.00;94271.13;5076002;28;20047;-68
2021/12/08 06:57:08;;;;;;;15.40;6.90;;;;;;;-1.64;100.00;94269.88;5074660;28;20054;-68
2021/12/08 06:59:44;;;;;;;22.67;10.20;;;;;;;-1.56;100.00;94277.50;5073691;28;20048;-68
2021/12/08 07:02:19;;;;;;;26.77;11.90;;;;;;;-1.62;100.00;94278.97;5077446;28;20036;-69
2021/12/08 07:07:40;;;;;;;19.27;9.77;;;;;;;-1.58;100.00;94289.63;5068435;28;20154;-68
2021/12/08 07:10:23;;;;;;;18.38;9.50;;;;;;;-1.65;100.00;94279.28;5069906;28;20383;-68
2021/12/08 07:12:54;;;;;;;15.98;9.02;;;;;;;-1.54;100.00;94301.88;5070076;28;20053;-68
2021/12/08 07:15:30;;;;;;;17.00;8.57;;;;;;;-1.56;100.00;94297.91;5070224;28;20409;-68
2021/12/08 07:18:03;;;;;;;19.08;9.27;;;;;;;-1.58;100.00;94294.75;5055612;28;20040;-70
2021/12/08 07:20:45;;;;;;;17.08;7.80;;;;;;;-1.57;100.00;94296.31;5067219;28;20032;-69
2021/12/08 07:23:20;;;;;;;21.42;9.48;;;;;;;-1.63;100.00;94287.56;5065705;28;20133;-69
2021/12/08 07:25:48;;;;;;;13.18;7.00;;;;;;;-1.53;100.00;94302.69;5070464;28;20044;-69
2021/12/08 07:28:17;;;;;;;21.42;9.95;;;;;;;-1.49;100.00;94301.38;5071023;28;20036;-69
2021/12/08 07:30:51;;;;;;;21.92;8.90;;;;;;;-1.44;100.00;94306.78;5069878;28;20434;-70
2021/12/08 07:33:18;;;;;;;20.27;9.30;;;;;;;-1.45;100.00;94319.72;5070597;28;20119;-69
2021/12/08 07:35:50;;;;;;;19.48;9.32;;;;;;;-1.49;100.00;94319.28;5071380;28;21021;-70
2021/12/08 07:38:20;;;;;;;27.00;11.20;;;;;;;-1.37;100.00;94312.81;5070971;28;20051;-70
2021/12/08 07:41:05;;;;;;;27.48;12.57;;;;;;;-1.42;100.00;94309.19;5072870;28;20136;-69
2021/12/08 07:43:37;;;;;;;20.35;9.75;;;;;;;-1.45;100.00;94325.63;5074472;28;20425;-69
2021/12/08 07:46:28;;;;;;;27.13;11.82;;;;;;;-1.48;100.00;94308.06;5071766;28;20052;-70
2021/12/08 07:49:08;;;;;;;15.73;7.90;;;;;;;-1.43;100.00;94322.91;5073238;28;20076;-69
2021/12/08 07:51:53;;;;;;;12.40;7.78;;;;;;;-1.40;100.00;94323.34;5069030;28;20032;-70
2021/12/08 07:54:22;;;;;;;21.45;8.73;;;;;;;-1.45;100.00;94322.28;5068449;28;20040;-70
2021/12/08 07:56:52;;;;;;;20.92;8.40;;;;;;;-1.45;100.00;94330.72;5074035;28;20059;-69
2021/12/08 07:59:20;;;;;;;17.25;7.78;;;;;;;-1.39;100.00;94335.19;5070098;28;20406;-69
2021/12/08 08:01:51;;;;;;;21.88;10.57;;;;;;;-1.37;100.00;94333.25;5072408;28;20490;-69
2021/12/08 08:04:21;;;;;;;23.02;9.68;;;;;;;-1.33;100.00;94327.78;5072087;28;20060;-69
2021/12/08 08:06:52;;;;;;;22.00;12.05;;;;;;;-1.37;100.00;94328.13;5068791;28;20501;-69
2021/12/08 08:09:24;;;;;;;26.60;11.57;;;;;;;-1.25;100.00;94327.75;5073704;28;20120;-68
2021/12/08 08:11:57;;;;;;;14.23;7.88;;;;;;;-1.28;100.00;94310.19;5069527;28;20039;-69
2021/12/08 08:14:32;;;;;;;23.45;10.52;;;;;;;-1.23;100.00;94328.34;5074244;28;20044;-70
2021/12/08 08:17:00;;;;;;;;;;;;;;;-1.17;100.00;94337.88;5076220;28;20040;-70
2021/12/08 08:19:30;;;;;;;12.10;7.03;;;;;;;-1.18;100.00;94341.44;5075028;28;20514;-70
2021/12/08 08:22:09;;;;;;;23.52;11.15;;;;;;;-1.25;100.00;94340.50;5068017;28;20102;-70
2021/12/08 08:24:37;;;;;;;17.38;9.82;;;;;;;-1.23;100.00;94353.91;5074943;28;20557;-69
2021/12/08 08:27:06;;;;;;;21.08;10.25;;;;;;;-1.27;100.00;94352.66;5077621;28;20498;-70
2021/12/08 08:29:33;;;;;;;24.17;10.80;;;;;;;-1.37;100.00;94333.25;5071864;28;20129;-70
2021/12/08 08:32:10;;;;;;;27.65;12.15;;;;;;;-1.20;100.00;94356.13;5075889;28;20033;-70
2021/12/08 08:34:41;;;;;;;15.52;9.43;;;;;;;-1.27;100.00;94352.66;5072998;28;20153;-70
2021/12/08 08:37:11;;;;;;;30.45;11.95;;;;;;;-1.30;100.00;94342.78;5076902;28;20043;-69
2021/12/08 08:39:45;;;;;;;20.85;9.65;;;;;;;-1.22;100.00;94370.84;5071446;28;20045;-71
2021/12/08 08:42:17;;;;;;;20.88;10.52;;;;;;;-1.18;100.00;94366.97;5082597;28;20040;-70
2021/12/08 08:44:51;;;;;;;19.63;8.93;;;;;;;-1.29;100.00;94349.50;5071308;28;20052;-70
2021/12/08 08:47:31;;;;;;;20.42;11.38;;;;;;;-1.30;100.00;94342.78;5075474;28;20040;-70
2021/12/08 08:49:58;;;;;;;20.08;10.80;;;;;;;-1.28;100.00;94351.06;5073391;28;21956;-71
2021/12/08 08:52:36;;;;;;;18.42;10.45;;;;;;;-1.18;100.00;94361.88;5075827;28;20051;-70
2021/12/08 08:55:11;;;;;;;18.08;9.52;;;;;;;-1.17;100.00;94363.44;5076532;28;20167;-70
2021/12/08 08:57:41;;;;;;;18.70;10.57;;;;;;;-1.23;100.00;94347.03;5076622;28;20458;-70
2021/12/08 09:00:08;;;;;;;20.95;9.13;;;;;;;-1.10;100.00;94364.34;5078228;28;20048;-71
2021/12/08 09:02:39;;;;;;;23.02;12.68;;;;;;;-1.08;100.00;94362.44;5076638;28;20052;-70
2021/12/08 09:05:16;;;;;;;19.27;10.13;;;;;;;-1.11;100.00;94357.66;5079602;28;20564;-71
2021/12/08 09:08:06;;;;;;;19.95;11.00;;;;;;;-1.14;100.00;94358.00;5071469;28;20506;-71
2021/12/08 09:10:56;;;;;;;14.48;7.68;;;;;;;-1.13;100.00;94349.38;5077653;28;20456;-71
2021/12/08 09:13:30;;;;;;;18.85;7.75;;;;;;;-1.05;100.00;94341.63;5076936;28;20124;-69
2021/12/08 09:16:05;;;;;;;20.50;7.13;;;;;;;-1.08;100.00;94336.88;5078734;28;20533;-71
2021/12/08 09:18:46;;;;;;;18.13;8.77;;;;;;;-1.19;100.00;94321.94;5078403;28;20043;-72
2021/12/08 09:21:39;;;;;;;24.95;10.85;;;;;;;-1.04;100.00;94343.25;5075642;28;20115;-71
2021/12/08 09:24:09;;;;;;;20.50;9.15;;;;;;;-1.05;100.00;94346.75;5068658;28;20060;-70
2021/12/08 09:26:42;;;;;;;16.77;9.88;;;;;;;-0.98;100.00;94334.09;5077854;28;20114;-70
2021/12/08 09:29:15;;;;;;;19.48;9.23;;;;;;;-1.01;100.00;94322.47;5076992;28;21113;-71
2021/12/08 09:32:07;;;;;;;18.58;9.25;;;;;;;-1.00;100.00;94329.16;5073671;28;20111;-71
2021/12/08 09:34:46;;;;;;;21.20;10.27;;;;;;;-0.98;100.00;94316.97;5073119;28;20498;-71
2021/12/08 09:37:17;;;;;;;27.00;9.07;;;;;;;-0.99;100.00;94312.03;5078613;28;20039;-71
2021/12/08 09:39:47;;;;;;;17.85;8.73;;;;;;;-0.91;100.00;94318.88;5074736;28;20044;-71
2021/12/08 09:42:40;;;;;;;19.75;9.77;;;;;;;-0.84;100.00;94322.31;5078283;28;20102;-71
2021/12/08 09:45:40;;;;;;;19.63;8.35;;;;;;;-0.88;100.00;94310.84;5062656;28;20048;-70
2021/12/08 09:48:14;;;;;;;14.00;8.13;;;;;;;-0.79;100.00;94320.06;5073201;28;20049;-72
2021/12/08 09:50:42;;;;;;;23.02;11.25;;;;;;;-0.73;100.00;94321.91;5081050;28;20394;-70
2021/12/08 09:53:09;;;;;;;29.50;14.13;;;;;;;-0.86;100.00;94294.38;5077477;28;20499;-72
2021/12/08 09:55:36;;;;;;;36.58;15.05;;;;;;;-0.59;100.00;94321.13;5076877;28;20174;-70
2021/12/08 09:58:06;;;;;;;32.75;15.32;;;;;;;-0.50;100.00;94321.06;5078075;28;20052;-71
2021/12/08 10:00:42;;;;;;;29.48;11.95;;;;;;;-0.56;100.00;94324.31;5074878;28;20505;-69
2021/12/08 10:03:09;;;;;;;25.05;12.38;;;;;;;-0.54;100.00;94320.63;5077324;28;20528;-70
2021/12/08 10:05:39;;;;;;;27.05;12.45;;;;;;;-0.46;100.00;94320.53;5078787;28;20045;-72
2021/12/08 10:08:08;;;;;;;27.75;13.02;;;;;;;-0.52;100.00;94316.13;5078597;28;20067;-71
2021/12/08 10:10:38;;;;;;;21.13;9.48;;;;;;;-0.46;100.00;94309.50;5078136;28;20044;-70
2021/12/08 10:13:05;;;;;;;25.90;12.27;;;;;;;-0.41;100.00;94322.56;5072763;28;20049;-71
2021/12/08 10:15:32;;;;;;;25.25;11.43;;;;;;;-0.34;100.00;94303.00;5070511;28;20040;-71
2021/12/08 10:18:00;;;;;;;21.30;11.23;;;;;;;-0.07;100.00;94324.59;5067040;28;20048;-70
2021/12/08 10:20:31;;;;;;;20.73;9.32;;;;;;;-0.23;100.00;94322.22;5075142;28;20040;-71
2021/12/08 10:23:28;;;;;;;19.65;9.65;;;;;;;-0.29;100.00;94316.06;5073512;28;20067;-71
2021/12/08 10:25:59;;;;;;;18.30;10.82;;;;;;;-0.32;100.00;94331.75;5076518;28;20047;-71
2021/12/08 10:28:36;;;;;;;18.85;7.82;;;;;;;-0.38;100.00;94317.09;5070214;28;20040;-71
2021/12/08 10:31:06;;;;;;;19.77;8.88;;;;;;;-0.42;100.00;94300.50;5072741;28;20093;-71
2021/12/08 10:34:11;;;;;;;20.10;10.02;;;;;;;-0.36;100.00;94307.50;5067155;28;20047;-72
2021/12/08 10:36:46;;;;;;;16.65;9.57;;;;;;;-0.35;100.00;94321.84;5049006;28;20060;-72
2021/12/08 10:39:45;;;;;;;21.50;8.38;;;;;;;-0.10;100.00;94313.94;5069064;28;20132;-72
2021/12/08 10:42:26;;;;;;;17.33;8.48;;;;;;;-0.25;100.00;94301.94;5072796;28;20054;-72
2021/12/08 10:47:55;;;;;;;16.98;8.73;;;;;;;-0.36;100.00;94299.00;5074479;28;20052;-69
2021/12/08 10:54:27;;;;;;;15.07;5.82;;;;;;;-0.10;100.00;94303.69;5070220;28;20041;-68
2021/12/08 10:57:19;;;;;;;11.85;7.05;;;;;;;-0.14;100.00;94299.91;5065737;28;20037;-68
2021/12/08 11:00:29;;;;;;;18.60;9.90;;;;;;;-0.29;100.00;94294.75;5069767;28;20062;-68
2021/12/08 11:03:42;;;;;;;21.30;9.52;;;;;;;-0.10;100.00;94303.69;5069675;28;20441;-61
2021/12/08 11:06:42;;;;;;;16.38;9.85;;;;;;;-0.03;100.00;94290.00;5065208;28;20041;-62
2021/12/08 11:09:27;;;;;;;15.00;8.20;;;;;;;0.03;100.00;94303.84;5056965;28;20074;-62
2021/12/08 11:12:03;;;;;;;17.73;8.98;;;;;;;0.05;100.00;94296.78;5064273;28;20051;-62
2021/12/08 11:14:51;;;;;;;19.92;10.10;;;;;;;0.24;100.00;94299.75;5061163;28;20158;-62
2021/12/08 11:17:35;;;;;;;15.38;8.00;;;;;;;0.34;100.00;94305.38;5062597;28;20520;-59
2021/12/08 11:20:24;;;;;;;23.85;10.70;;;;;;;0.50;100.00;94307.72;5061647;28;20053;-62
2021/12/08 11:23:45;;;;;;;18.25;9.13;;;;;;;0.54;100.00;94306.41;5062695;28;20131;-64
2021/12/08 11:26:41;;;;;;;17.58;9.50;;;;;;;0.59;100.00;94302.50;5065264;28;20506;-62
2021/12/08 11:29:42;;;;;;;16.10;8.95;;;;;;;0.52;100.00;94308.34;5063497;28;20060;-63
2021/12/08 11:32:27;;;;;;;17.73;9.75;;;;;;;0.49;100.00;94295.91;5062568;28;20119;-64
2021/12/08 11:35:35;;;;;;;19.85;8.65;;;;;;;0.55;100.00;94313.09;5058579;28;20049;-64
2021/12/08 11:38:27;;;;;;;14.50;6.95;;;;;;;0.31;100.00;94313.44;5065271;28;20513;-64
2021/12/08 11:41:20;;;;;;;17.60;8.15;;;;;;;0.27;100.00;94310.44;5062064;28;20041;-63
2021/12/08 11:43:56;;;;;;;10.95;7.25;;;;;;;0.36;100.00;94311.09;5047003;28;20053;-64
2021/12/08 11:46:24;;;;;;;13.35;7.60;;;;;;;0.26;100.00;94321.66;5060579;28;20048;-63
2021/12/08 11:49:04;;;;;;;18.88;7.70;;;;;;;0.17;100.00;94331.19;5075191;28;20040;-63
2021/12/08 11:51:44;;;;;;;11.35;6.55;;;;;;;0.35;100.00;94327.47;5074004;28;20497;-64
2021/12/08 11:54:26;;;;;;;13.85;6.90;;;;;;;0.42;100.00;94323.22;5065242;28;20040;-64
2021/12/08 11:57:01;;;;;;;11.23;7.05;;;;;;;0.43;100.00;94319.66;5064629;28;20581;-63
2021/12/08 11:59:28;;;;;;;16.92;9.05;;;;;;;0.63;100.00;94329.34;5065278;28;20526;-63
2021/12/08 12:01:55;;;;;;;15.27;7.63;;;;;;;0.67;100.00;94315.19;5068260;28;20043;-63
2021/12/08 12:04:22;;;;;;;16.90;8.43;;;;;;;1.01;100.00;94336.78;5061691;28;20048;-63
2021/12/08 12:06:49;;;;;;;18.00;8.75;;;;;;;1.67;100.00;94321.91;5057295;28;20429;-63
2021/12/08 12:09:15;;;;;;;18.40;9.05;;;;;;;2.19;99.05;94330.09;5063744;28;20145;-63
2021/12/08 12:11:53;;;;;;;22.10;10.35;;;;;;;2.63;96.34;94325.53;5071722;28;20407;-64
2021/12/08 12:14:21;;;;;;;15.98;9.48;;;;;;;2.79;94.29;94330.31;5067809;28;20059;-64
2021/12/08 12:16:47;;;;;;;16.02;8.57;;;;;;;2.83;93.02;94341.78;5069885;28;20051;-64
2021/12/08 12:19:17;;;;;;;20.92;8.68;;;;;;;2.68;91.87;94333.44;5066783;28;20051;-64
2021/12/08 12:22:03;;;;;;;20.10;9.23;;;;;;;2.96;91.71;94335.09;5068825;28;20040;-65
2021/12/08 12:24:44;;;;;;;17.45;9.32;;;;;;;2.90;90.62;94336.69;5070282;28;20040;-65
2021/12/08 12:27:32;;;;;;;28.85;11.18;;;;;;;2.94;89.65;94339.66;5067392;28;20141;-64
2021/12/08 12:30:17;;;;;;;24.77;10.20;;;;;;;2.90;89.81;94341.00;5065584;28;20051;-64
2021/12/08 12:32:49;;;;;;;21.10;10.95;;;;;;;2.55;90.32;94333.41;5063400;28;20036;-64
2021/12/08 12:35:24;;;;;;;16.23;8.23;;;;;;;2.12;92.63;94326.72;5062290;28;20047;-63
2021/12/08 12:38:00;;;;;;;21.38;10.45;;;;;;;1.75;94.84;94338.16;5065081;28;20128;-63